createdAt,value
2022-12-04T00:01:18.089Z,96494.00
2022-12-04T00:03:44.741Z,96487.00
2022-12-04T00:06:19.710Z,96488.00
2022-12-04T00:08:48.068Z,96486.00
2022-12-04T00:11:17.684Z,96487.00
2022-12-04T00:13:44.558Z,96486.00
2022-12-04T00:16:13.718Z,96491.00
2022-12-04T00:18:40.403Z,96489.00
2022-12-04T00:21:08.857Z,96489.00
2022-12-04T00:23:36.245Z,96479.00
2022-12-04T00:26:05.465Z,96493.00
2022-12-04T00:28:32.326Z,96493.00
2022-12-04T00:30:58.991Z,96488.00
2022-12-04T00:33:25.706Z,96478.00
2022-12-04T00:36:00.007Z,96480.00
2022-12-04T00:38:27.256Z,96468.00
2022-12-04T00:40:54.700Z,96471.00
2022-12-04T00:43:22.346Z,96471.00
2022-12-04T00:45:49.442Z,96462.00
2022-12-04T00:48:16.242Z,96471.00
2022-12-04T00:50:42.914Z,96470.00
2022-12-04T00:53:09.667Z,96470.00
2022-12-04T00:55:40.453Z,96464.00
2022-12-04T00:58:07.829Z,96476.00
2022-12-04T01:00:35.685Z,96469.00
2022-12-04T01:03:02.971Z,96462.00
2022-12-04T01:05:29.904Z,96467.00
2022-12-04T01:07:56.955Z,96469.00
2022-12-04T01:10:23.799Z,96471.00
2022-12-04T01:12:51.601Z,96479.00
2022-12-04T01:15:18.270Z,96468.00
2022-12-04T01:17:45.471Z,96476.00
2022-12-04T01:20:16.123Z,96476.00
2022-12-04T01:22:42.809Z,96474.00
2022-12-04T01:25:09.767Z,96479.00
2022-12-04T01:27:36.422Z,96479.00
2022-12-04T01:30:03.916Z,96485.00
2022-12-04T01:32:30.561Z,96474.00
2022-12-04T01:34:57.277Z,96472.00
2022-12-04T01:37:23.983Z,96484.00
2022-12-04T01:39:50.642Z,96476.00
2022-12-04T01:42:17.289Z,96472.00
2022-12-04T01:45:04.794Z,96470.00
2022-12-04T01:47:31.500Z,96484.00
2022-12-04T01:49:58.980Z,96474.00
2022-12-04T01:52:26.517Z,96470.00
2022-12-04T01:54:59.882Z,96471.00
2022-12-04T01:57:28.490Z,96459.00
2022-12-04T01:59:58.730Z,96456.00
2022-12-04T02:02:51.705Z,96463.00
2022-12-04T02:05:21.331Z,96459.00
2022-12-04T02:07:50.260Z,96464.00
2022-12-04T02:10:24.226Z,96462.00
2022-12-04T02:13:19.580Z,96465.00
2022-12-04T02:15:56.184Z,96462.00
2022-12-04T02:18:41.172Z,96453.00
2022-12-04T02:21:22.222Z,96452.00
2022-12-04T02:24:10.043Z,96460.00
2022-12-04T02:26:50.222Z,96453.00
2022-12-04T02:29:34.187Z,96462.00
2022-12-04T02:32:09.835Z,96459.00
2022-12-04T02:34:48.883Z,96448.00
2022-12-04T02:37:31.181Z,96450.00
2022-12-04T02:40:09.073Z,96452.00
2022-12-04T02:43:08.558Z,96452.00
2022-12-04T02:45:41.648Z,96433.00
2022-12-04T02:48:08.487Z,96445.00
2022-12-04T02:50:38.137Z,96443.00
2022-12-04T02:53:09.028Z,96446.00
2022-12-04T02:55:40.348Z,96442.00
2022-12-04T02:58:21.738Z,96436.00
2022-12-04T03:00:49.021Z,96439.00
2022-12-04T03:03:23.582Z,96443.00
2022-12-04T03:05:56.454Z,96440.00
2022-12-04T03:08:28.817Z,96432.00
2022-12-04T03:10:58.128Z,96433.00
2022-12-04T03:13:27.786Z,96428.00
2022-12-04T03:16:00.851Z,96421.00
2022-12-04T03:19:16.195Z,96428.00
2022-12-04T03:22:11.255Z,96424.00
2022-12-04T03:24:40.958Z,96437.00
2022-12-04T03:27:19.596Z,96425.00
2022-12-04T03:30:18.105Z,96432.00
2022-12-04T03:33:23.536Z,96428.00
2022-12-04T03:36:23.690Z,96426.00
2022-12-04T03:39:22.408Z,96441.00
2022-12-04T03:42:32.677Z,96435.00
2022-12-04T03:45:07.477Z,96421.00
2022-12-04T03:47:44.902Z,96421.00
2022-12-04T03:50:19.891Z,96421.00
2022-12-04T03:53:04.816Z,96426.00
2022-12-04T03:55:46.473Z,96424.00
2022-12-04T03:58:16.486Z,96440.00
2022-12-04T04:00:44.004Z,96438.00
2022-12-04T04:03:18.138Z,96439.00
2022-12-04T04:05:47.509Z,96439.00
2022-12-04T04:08:27.944Z,96443.00
2022-12-04T04:11:12.089Z,96447.00
2022-12-04T04:14:03.294Z,96447.00
2022-12-04T04:16:49.982Z,96455.00
2022-12-04T04:19:37.326Z,96455.00
2022-12-04T04:22:26.292Z,96446.00
2022-12-04T04:24:59.870Z,96447.00
2022-12-04T04:27:26.538Z,96454.00
2022-12-04T04:29:53.271Z,96443.00
2022-12-04T04:32:22.874Z,96450.00
2022-12-04T04:35:05.224Z,96449.00
2022-12-04T04:37:54.654Z,96443.00
2022-12-04T04:40:36.763Z,96452.00
2022-12-04T04:43:33.896Z,96440.00
2022-12-04T04:46:05.274Z,96443.00
2022-12-04T04:48:35.256Z,96440.00
2022-12-04T04:51:03.569Z,96456.00
2022-12-04T04:53:35.564Z,96442.00
2022-12-04T04:56:02.792Z,96438.00
2022-12-04T04:58:29.451Z,96437.00
2022-12-04T05:01:00.457Z,96438.00
2022-12-04T05:03:27.703Z,96438.00
2022-12-04T05:05:54.702Z,96435.00
2022-12-04T05:08:22.006Z,96432.00
2022-12-04T05:10:48.753Z,96427.00
2022-12-04T05:13:16.305Z,96436.00
2022-12-04T05:15:43.329Z,96436.00
2022-12-04T05:18:10.516Z,96437.00
2022-12-04T05:20:40.639Z,96443.00
2022-12-04T05:23:07.351Z,96441.00
2022-12-04T05:25:34.023Z,96435.00
2022-12-04T05:28:00.725Z,96435.00
2022-12-04T05:30:27.400Z,96431.00
2022-12-04T05:32:54.094Z,96436.00
2022-12-04T05:35:20.753Z,96450.00
2022-12-04T05:37:47.475Z,96450.00
2022-12-04T05:40:14.268Z,96444.00
2022-12-04T05:42:40.917Z,96446.00
2022-12-04T05:45:08.220Z,96441.00
2022-12-04T05:47:39.581Z,96443.00
2022-12-04T05:50:07.708Z,96441.00
2022-12-04T05:52:34.382Z,96458.00
2022-12-04T05:55:01.058Z,96451.00
2022-12-04T05:57:29.967Z,96443.00
2022-12-04T05:59:57.241Z,96441.00
2022-12-04T06:02:24.225Z,96444.00
2022-12-04T06:04:50.923Z,96446.00
2022-12-04T06:07:17.605Z,96449.00
2022-12-04T06:09:44.296Z,96447.00
2022-12-04T06:12:10.972Z,96436.00
2022-12-04T06:14:39.824Z,96447.00
2022-12-04T06:17:06.893Z,96449.00
2022-12-04T06:19:33.550Z,96457.00
2022-12-04T06:22:00.215Z,96454.00
2022-12-04T06:24:26.893Z,96459.00
2022-12-04T06:29:47.146Z,96465.00
2022-12-04T06:32:17.908Z,96467.00
2022-12-04T06:34:46.282Z,96476.00
2022-12-04T06:37:12.934Z,96468.00
2022-12-04T06:39:39.601Z,96480.00
2022-12-04T06:42:06.247Z,96473.00
2022-12-04T06:44:32.948Z,96479.00
2022-12-04T06:47:01.081Z,96474.00
2022-12-04T06:49:28.172Z,96479.00
2022-12-04T06:51:54.817Z,96470.00
2022-12-04T06:54:21.480Z,96473.00
2022-12-04T06:56:49.672Z,96465.00
2022-12-04T06:59:16.339Z,96466.00
2022-12-04T07:01:43.074Z,96468.00
2022-12-04T07:04:09.814Z,96473.00
2022-12-04T07:06:38.331Z,96474.00
2022-12-04T07:09:15.709Z,96473.00
2022-12-04T07:11:43.152Z,96471.00
2022-12-04T07:14:10.581Z,96474.00
2022-12-04T07:16:41.035Z,96474.00
2022-12-04T07:19:09.977Z,96480.00
2022-12-04T07:21:36.793Z,96479.00
2022-12-04T07:24:04.029Z,96476.00
2022-12-04T07:26:31.272Z,96479.00
2022-12-04T07:28:59.212Z,96486.00
2022-12-04T07:31:27.503Z,96488.00
2022-12-04T07:33:54.967Z,96494.00
2022-12-04T07:36:23.118Z,96492.00
2022-12-04T07:38:50.196Z,96500.00
2022-12-04T07:41:18.007Z,96495.00
2022-12-04T07:43:44.975Z,96493.00
2022-12-04T07:46:16.119Z,96506.00
2022-12-04T07:48:43.114Z,96505.00
2022-12-04T07:51:15.620Z,96513.00
2022-12-04T07:53:42.798Z,96514.00
2022-12-04T07:56:10.398Z,96520.00
2022-12-04T07:58:37.150Z,96523.00
2022-12-04T08:01:11.128Z,96512.00
2022-12-04T08:03:45.250Z,96507.00
2022-12-04T08:06:14.329Z,96503.00
2022-12-04T08:08:41.057Z,96499.00
2022-12-04T08:11:13.657Z,96495.00
2022-12-04T08:13:40.323Z,96496.00
2022-12-04T08:16:08.491Z,96501.00
2022-12-04T08:18:35.458Z,96498.00
2022-12-04T08:21:09.857Z,96499.00
2022-12-04T08:23:36.861Z,96502.00
2022-12-04T08:26:04.168Z,96494.00
2022-12-04T08:28:31.420Z,96489.00
2022-12-04T08:31:25.188Z,96474.00
2022-12-04T08:33:54.219Z,96469.00
2022-12-04T08:36:21.696Z,96474.00
2022-12-04T08:38:49.182Z,96473.00
2022-12-04T08:41:17.997Z,96480.00
2022-12-04T08:43:44.897Z,96467.00
2022-12-04T08:46:15.037Z,96469.00
2022-12-04T08:48:42.265Z,96468.00
2022-12-04T08:51:14.040Z,96470.00
2022-12-04T08:53:40.702Z,96479.00
2022-12-04T08:56:11.074Z,96475.00
2022-12-04T08:58:40.550Z,96476.00
2022-12-04T09:01:14.782Z,96479.00
2022-12-04T09:03:42.350Z,96472.00
2022-12-04T09:06:11.010Z,96474.00
2022-12-04T09:08:38.419Z,96473.00
2022-12-04T09:11:14.477Z,96475.00
2022-12-04T09:13:45.057Z,96479.00
2022-12-04T09:16:15.401Z,96473.00
2022-12-04T09:18:42.859Z,96480.00
2022-12-04T09:21:17.896Z,96474.00
2022-12-04T09:23:45.705Z,96484.00
2022-12-04T09:26:32.680Z,96489.00
2022-12-04T09:29:03.899Z,96495.00
2022-12-04T09:31:33.838Z,96489.00
2022-12-04T09:34:03.682Z,96491.00
2022-12-04T09:36:30.831Z,96496.00
2022-12-04T09:38:58.188Z,96502.00
2022-12-04T09:41:31.467Z,96501.00
2022-12-04T09:44:08.971Z,96498.00
2022-12-04T09:46:45.334Z,96507.00
2022-12-04T09:49:47.509Z,96499.00
2022-12-04T09:53:00.332Z,96495.00
2022-12-04T09:55:33.527Z,96491.00
2022-12-04T09:58:02.566Z,96488.00
2022-12-04T10:00:36.521Z,96477.00
2022-12-04T10:03:16.146Z,96489.00
2022-12-04T10:06:05.048Z,96489.00
2022-12-04T10:08:45.932Z,96491.00
2022-12-04T10:12:18.975Z,96489.00
2022-12-04T10:15:59.688Z,96485.00
2022-12-04T10:18:33.899Z,96490.00
2022-12-04T10:21:29.831Z,96501.00
2022-12-04T10:24:46.966Z,96494.00
2022-12-04T10:28:28.907Z,96492.00
2022-12-04T10:34:13.446Z,96492.00
2022-12-04T10:36:53.436Z,96478.00
2022-12-04T10:39:26.676Z,96478.00
2022-12-04T10:42:24.955Z,96496.00
2022-12-04T10:44:53.134Z,96496.00
2022-12-04T10:47:22.432Z,96505.00
2022-12-04T10:49:55.114Z,96512.00
2022-12-04T10:52:22.563Z,96508.00
2022-12-04T10:54:56.987Z,96514.00
2022-12-04T10:57:40.827Z,96512.00
2022-12-04T11:00:36.339Z,96514.00
2022-12-04T11:03:10.391Z,96516.00
2022-12-04T11:05:55.720Z,96522.00
2022-12-04T11:08:53.596Z,96525.00
2022-12-04T11:11:28.019Z,96520.00
2022-12-04T11:14:08.163Z,96511.00
2022-12-04T11:16:37.792Z,96509.00
2022-12-04T11:19:25.522Z,96499.00
2022-12-04T11:21:55.224Z,96494.00
2022-12-04T11:24:27.079Z,96497.00
2022-12-04T11:26:57.096Z,96488.00
2022-12-04T11:29:32.718Z,96489.00
2022-12-04T11:32:07.575Z,96487.00
2022-12-04T11:34:38.615Z,96491.00
2022-12-04T11:37:07.506Z,96485.00
2022-12-04T11:39:40.594Z,96489.00
2022-12-04T11:42:13.991Z,96488.00
2022-12-04T11:44:57.322Z,96490.00
2022-12-04T11:47:33.890Z,96491.00
2022-12-04T11:50:56.856Z,96483.00
2022-12-04T11:54:11.960Z,96478.00
2022-12-04T11:57:09.091Z,96486.00
2022-12-04T11:59:50.969Z,96495.00
2022-12-04T12:02:49.766Z,96486.00
2022-12-04T12:05:49.786Z,96486.00
2022-12-04T12:08:59.537Z,96476.00
2022-12-04T12:16:10.547Z,96471.00
2022-12-04T12:19:18.070Z,96473.00
2022-12-04T12:22:08.995Z,96464.00
2022-12-04T12:25:19.204Z,96457.00
2022-12-04T12:28:17.896Z,96454.00
2022-12-04T12:31:05.417Z,96439.00
2022-12-04T12:33:46.072Z,96439.00
2022-12-04T12:36:14.350Z,96443.00
2022-12-04T12:38:48.365Z,96446.00
2022-12-04T12:41:36.197Z,96440.00
2022-12-04T12:44:06.471Z,96451.00
2022-12-04T12:47:34.104Z,96452.00
2022-12-04T12:50:06.868Z,96449.00
2022-12-04T12:52:51.485Z,96447.00
2022-12-04T12:55:49.297Z,96436.00
2022-12-04T12:58:38.379Z,96441.00
2022-12-04T13:01:20.104Z,96435.00
2022-12-04T13:04:28.283Z,96438.00
2022-12-04T13:07:15.093Z,96424.00
2022-12-04T13:09:47.428Z,96415.00
2022-12-04T13:12:19.736Z,96408.00
2022-12-04T13:14:49.870Z,96410.00
2022-12-04T13:17:40.937Z,96403.00
2022-12-04T13:20:19.792Z,96407.00
2022-12-04T13:23:07.369Z,96409.00
2022-12-04T13:26:09.262Z,96412.00
2022-12-04T13:29:06.286Z,96408.00
2022-12-04T13:31:56.454Z,96418.00
2022-12-04T13:34:54.862Z,96408.00
2022-12-04T13:37:31.023Z,96404.00
2022-12-04T13:40:28.430Z,96399.00
2022-12-04T13:43:19.087Z,96400.00
2022-12-04T13:45:51.605Z,96404.00
2022-12-04T13:48:48.001Z,96402.00
2022-12-04T13:51:23.757Z,96407.00
2022-12-04T13:54:24.243Z,96414.00
2022-12-04T13:57:02.609Z,96416.00
2022-12-04T13:59:31.994Z,96412.00
2022-12-04T14:02:06.489Z,96415.00
2022-12-04T14:04:41.916Z,96409.00
2022-12-04T14:07:24.366Z,96400.00
2022-12-04T14:09:53.464Z,96413.00
2022-12-04T14:12:26.371Z,96402.00
2022-12-04T14:15:02.350Z,96401.00
2022-12-04T14:17:31.969Z,96394.00
2022-12-04T14:20:07.394Z,96391.00
2022-12-04T14:22:34.629Z,96396.00
2022-12-04T14:25:13.578Z,96386.00
2022-12-04T14:27:51.734Z,96390.00
2022-12-04T14:30:36.698Z,96385.00
2022-12-04T14:33:17.675Z,96383.00
2022-12-04T14:35:48.736Z,96383.00
2022-12-04T14:38:19.129Z,96387.00
2022-12-04T14:40:49.781Z,96385.00
2022-12-04T14:43:22.168Z,96386.00
2022-12-04T14:45:56.705Z,96384.00
2022-12-04T14:48:47.606Z,96387.00
2022-12-04T14:51:22.956Z,96391.00
2022-12-04T14:54:01.248Z,96393.00
2022-12-04T14:56:41.382Z,96391.00
2022-12-04T14:59:49.532Z,96401.00
2022-12-04T15:02:25.235Z,96386.00
2022-12-04T15:04:52.153Z,96391.00
2022-12-04T15:07:24.503Z,96385.00
2022-12-04T15:10:14.933Z,96384.00
2022-12-04T15:12:46.889Z,96390.00
2022-12-04T15:15:22.023Z,96389.00
2022-12-04T15:18:03.910Z,96386.00
2022-12-04T15:20:40.932Z,96390.00
2022-12-04T15:23:19.652Z,96389.00
2022-12-04T15:25:54.651Z,96391.00
2022-12-04T15:28:27.716Z,96394.00
2022-12-04T15:30:55.214Z,96393.00
2022-12-04T15:33:24.826Z,96394.00
2022-12-04T15:36:00.295Z,96389.00
2022-12-04T15:38:27.500Z,96391.00
2022-12-04T15:40:58.961Z,96398.00
2022-12-04T15:43:51.758Z,96403.00
2022-12-04T15:46:25.104Z,96406.00
2022-12-04T15:48:51.823Z,96393.00
2022-12-04T15:51:20.645Z,96398.00
2022-12-04T15:53:47.491Z,96406.00
2022-12-04T15:56:19.034Z,96396.00
2022-12-04T15:58:57.768Z,96409.00
2022-12-04T16:01:24.673Z,96404.00
2022-12-04T16:03:52.965Z,96401.00
2022-12-04T16:06:21.107Z,96406.00
2022-12-04T16:08:52.208Z,96395.00
2022-12-04T16:11:24.328Z,96405.00
2022-12-04T16:14:02.989Z,96414.00
2022-12-04T16:16:29.768Z,96407.00
2022-12-04T16:18:56.473Z,96401.00
2022-12-04T16:21:29.864Z,96413.00
2022-12-04T16:24:04.176Z,96409.00
2022-12-04T16:26:30.904Z,96419.00
2022-12-04T16:28:57.597Z,96418.00
2022-12-04T16:31:24.521Z,96417.00
2022-12-04T16:33:51.405Z,96415.00
2022-12-04T16:36:18.350Z,96422.00
2022-12-04T16:38:45.048Z,96429.00
2022-12-04T16:41:16.465Z,96420.00
2022-12-04T16:43:43.136Z,96421.00
2022-12-04T16:46:13.220Z,96421.00
2022-12-04T16:48:41.696Z,96424.00
2022-12-04T16:51:16.842Z,96428.00
2022-12-04T16:53:43.605Z,96416.00
2022-12-04T16:56:10.386Z,96419.00
2022-12-04T16:58:37.157Z,96423.00
2022-12-04T17:01:05.635Z,96429.00
2022-12-04T17:03:34.267Z,96422.00
2022-12-04T17:06:01.587Z,96437.00
2022-12-04T17:08:29.577Z,96432.00
2022-12-04T17:10:56.254Z,96438.00
2022-12-04T17:13:23.219Z,96448.00
2022-12-04T17:15:50.016Z,96444.00
2022-12-04T17:18:21.103Z,96445.00
2022-12-04T17:20:48.690Z,96442.00
2022-12-04T17:23:15.361Z,96450.00
2022-12-04T17:25:42.114Z,96451.00
2022-12-04T17:28:08.977Z,96456.00
2022-12-04T17:30:36.480Z,96445.00
2022-12-04T17:33:04.489Z,96457.00
2022-12-04T17:35:31.424Z,96463.00
2022-12-04T17:38:02.255Z,96454.00
2022-12-04T17:40:32.573Z,96450.00
2022-12-04T17:42:59.504Z,96445.00
2022-12-04T17:45:26.191Z,96455.00
2022-12-04T17:47:52.851Z,96443.00
2022-12-04T17:50:19.538Z,96453.00
2022-12-04T17:52:46.218Z,96460.00
2022-12-04T17:55:12.876Z,96466.00
2022-12-04T17:57:39.520Z,96452.00
2022-12-04T18:00:06.989Z,96450.00
2022-12-04T18:02:33.834Z,96452.00
2022-12-04T18:05:00.600Z,96464.00
2022-12-04T18:07:27.261Z,96465.00
2022-12-04T18:09:54.068Z,96473.00
2022-12-04T18:12:20.813Z,96492.00
2022-12-04T18:14:47.523Z,96502.00
2022-12-04T18:17:14.280Z,96503.00
2022-12-04T18:19:41.076Z,96507.00
2022-12-04T18:22:07.801Z,96503.00
2022-12-04T18:24:34.476Z,96507.00
2022-12-04T18:27:01.182Z,96511.00
2022-12-04T18:29:27.923Z,96508.00
2022-12-04T18:31:54.700Z,96508.00
2022-12-04T18:34:22.249Z,96499.00
2022-12-04T18:36:49.135Z,96515.00
2022-12-04T18:39:18.652Z,96509.00
2022-12-04T18:41:45.933Z,96501.00
2022-12-04T18:44:12.641Z,96492.00
2022-12-04T18:46:40.321Z,96498.00
2022-12-04T18:49:09.099Z,96507.00
2022-12-04T18:51:48.932Z,96511.00
2022-12-04T18:54:22.439Z,96518.00
2022-12-04T18:56:49.651Z,96515.00
2022-12-04T18:59:22.274Z,96514.00
2022-12-04T19:01:52.423Z,96521.00
2022-12-04T19:04:20.251Z,96523.00
2022-12-04T19:06:49.214Z,96521.00
2022-12-04T19:09:35.387Z,96524.00
2022-12-04T19:12:08.864Z,96530.00
2022-12-04T19:14:35.601Z,96531.00
2022-12-04T19:17:02.323Z,96529.00
2022-12-04T19:19:31.750Z,96528.00
2022-12-04T19:21:59.073Z,96519.00
2022-12-04T19:24:25.725Z,96519.00
2022-12-04T19:26:54.079Z,96520.00
2022-12-04T19:29:20.758Z,96521.00
2022-12-04T19:31:47.474Z,96526.00
2022-12-04T19:34:14.290Z,96523.00
2022-12-04T19:36:41.646Z,96526.00
2022-12-04T19:39:08.391Z,96539.00
2022-12-04T19:41:36.982Z,96535.00
2022-12-04T19:44:25.995Z,96537.00
2022-12-04T19:46:51.072Z,96547.00
2022-12-04T19:49:17.747Z,96552.00
2022-12-04T19:51:44.470Z,96550.00
2022-12-04T19:54:12.729Z,96552.00
2022-12-04T19:56:39.543Z,96548.00
2022-12-04T19:59:07.768Z,96547.00
2022-12-04T20:01:35.167Z,96560.00
2022-12-04T20:04:05.412Z,96560.00
2022-12-04T20:06:37.341Z,96557.00
2022-12-04T20:09:06.328Z,96553.00
2022-12-04T20:11:33.668Z,96548.00
2022-12-04T20:14:01.775Z,96555.00
2022-12-04T20:16:31.004Z,96548.00
2022-12-04T20:18:58.541Z,96532.00
2022-12-04T20:21:30.117Z,96538.00
2022-12-04T20:24:01.585Z,96533.00
2022-12-04T20:26:31.750Z,96533.00
2022-12-04T20:28:59.892Z,96533.00
2022-12-04T20:31:32.513Z,96535.00
2022-12-04T20:34:00.723Z,96522.00
2022-12-04T20:36:29.378Z,96540.00
2022-12-04T20:38:58.182Z,96534.00
2022-12-04T20:41:26.865Z,96527.00
2022-12-04T20:43:54.002Z,96533.00
2022-12-04T20:46:23.479Z,96540.00
2022-12-04T20:48:51.787Z,96548.00
2022-12-04T20:51:23.880Z,96557.00
2022-12-04T20:53:51.428Z,96555.00
2022-12-04T20:56:18.840Z,96551.00
2022-12-04T20:58:45.816Z,96553.00
2022-12-04T21:01:15.065Z,96543.00
2022-12-04T21:03:42.660Z,96546.00
2022-12-04T21:06:13.556Z,96552.00
2022-12-04T21:08:53.020Z,96557.00
2022-12-04T21:11:20.781Z,96553.00
2022-12-04T21:14:05.910Z,96564.00
2022-12-04T21:16:32.651Z,96578.00
2022-12-04T21:18:59.402Z,96588.00
2022-12-04T21:21:27.135Z,96605.00
2022-12-04T21:23:53.811Z,96596.00
2022-12-04T21:26:20.749Z,96597.00
2022-12-04T21:28:47.772Z,96606.00
2022-12-04T21:34:26.487Z,96623.00
2022-12-04T21:36:53.304Z,96613.00
2022-12-04T21:39:21.697Z,96635.00
2022-12-04T21:42:07.005Z,96622.00
2022-12-04T21:44:33.700Z,96623.00
2022-12-04T21:47:00.476Z,96630.00
2022-12-04T21:49:27.239Z,96624.00
2022-12-04T21:51:58.522Z,96623.00
2022-12-04T21:54:27.046Z,96622.00
2022-12-04T21:56:53.854Z,96638.00
2022-12-04T21:59:20.598Z,96639.00
2022-12-04T22:01:47.344Z,96636.00
2022-12-04T22:04:14.239Z,96641.00
2022-12-04T22:06:40.894Z,96632.00
2022-12-04T22:09:09.676Z,96633.00
2022-12-04T22:11:37.053Z,96648.00
2022-12-04T22:14:03.989Z,96646.00
2022-12-04T22:16:31.734Z,96639.00
2022-12-04T22:19:00.424Z,96646.00
2022-12-04T22:21:27.895Z,96640.00
2022-12-04T22:23:59.332Z,96652.00
2022-12-04T22:26:27.130Z,96649.00
2022-12-04T22:28:53.901Z,96652.00
2022-12-04T22:31:22.683Z,96649.00
2022-12-04T22:33:52.292Z,96659.00
2022-12-04T22:36:21.258Z,96657.00
2022-12-04T22:39:08.264Z,96645.00
2022-12-04T22:41:34.837Z,96651.00
2022-12-04T22:44:01.672Z,96648.00
2022-12-04T22:46:28.390Z,96654.00
2022-12-04T22:48:55.207Z,96674.00
2022-12-04T22:51:22.272Z,96688.00
2022-12-04T22:53:51.501Z,96685.00
2022-12-04T22:56:20.689Z,96700.00
2022-12-04T22:58:47.703Z,96706.00
2022-12-04T23:01:17.731Z,96701.00
2022-12-04T23:03:45.318Z,96719.00
2022-12-04T23:06:12.632Z,96719.00
2022-12-04T23:08:40.484Z,96711.00
2022-12-04T23:11:09.729Z,96720.00
2022-12-04T23:13:36.399Z,96725.00
2022-12-04T23:16:09.315Z,96717.00
2022-12-04T23:18:36.753Z,96726.00
2022-12-04T23:21:05.591Z,96730.00
2022-12-04T23:23:34.414Z,96741.00
2022-12-04T23:26:06.065Z,96728.00
2022-12-04T23:28:32.967Z,96732.00
2022-12-04T23:30:59.732Z,96727.00
2022-12-04T23:33:26.986Z,96743.00
2022-12-04T23:35:54.772Z,96727.00
2022-12-04T23:38:22.475Z,96734.00
2022-12-04T23:40:49.214Z,96734.00
2022-12-04T23:43:16.216Z,96739.00
2022-12-04T23:45:43.785Z,96743.00
2022-12-04T23:48:10.682Z,96724.00
2022-12-04T23:50:37.403Z,96730.00
2022-12-04T23:53:04.048Z,96727.00
2022-12-04T23:55:34.317Z,96720.00
2022-12-04T23:58:01.980Z,96716.00
